DW9615 Home Hill AU current weather conditions

sailwx.info

Wind from 147 at 0 knots gusting 2

Air temperature 13.3° C
Dewpoint 11.7° C

Last reported at 2016-Jul-29 18:41 UTC.
Time now 2016-Jul-29 19:51 UTC

Location: S 19°40' E 147°25'.
View on Google Maps.

See reports from other nearby stations

  
Tides and Currents Weather Stations Pressure Air Temp Water Temp Dewpoint Dewpoint Depression Visibility Wind Speed Wind Dir Waves Ship Positions
date/time (UTC)wind fromknots sea level pressurealtimeterstation pressurevisibilityair tempwater tempwave heightnotes
2016-Jul-29 18:41 147 0 gusting 2 13.3
2016-Jul-29 18:25 147 12.8
2016-Jul-29 18:10 147 13.3
2016-Jul-29 17:55 147 13.3
2016-Jul-29 17:40 147 13.3
2016-Jul-29 17:25 147 13.9
2016-Jul-29 17:10 159 1 gusting 3 13.9
2016-Jul-29 16:55 135 13.3
2016-Jul-29 16:40 135 13.3
2016-Jul-29 16:25 135 13.9
2016-Jul-29 16:10 135 13.9
2016-Jul-29 15:55 134 13.9
2016-Jul-29 15:40 134 14.4
2016-Jul-29 15:10 120 0 gusting 2 15.0
2016-Jul-29 14:55 120 15.6
2016-Jul-29 14:40 116 0 gusting 2 15.6
2016-Jul-29 14:25 110 0 gusting 3 16.1
2016-Jul-29 14:10 108 1 gusting 4 16.1
2016-Jul-29 13:55 137 1 gusting 7 16.1
2016-Jul-29 13:40 133 3 gusting 6 16.1
2016-Jul-29 13:25 124 1 gusting 4 16.1
2016-Jul-29 13:10 134 1 gusting 3 16.1
2016-Jul-29 12:55 127 2 gusting 4 16.1
2016-Jul-29 12:40 121 2 gusting 4 15.6
2016-Jul-29 12:25 133 2 gusting 5 16.1
2016-Jul-29 12:10 148 2 gusting 5 16.7
2016-Jul-29 11:55 121 1 gusting 5 16.7
2016-Jul-29 11:41 125 1 gusting 4 16.7
2016-Jul-29 11:25 125 0 gusting 3 16.7
2016-Jul-29 11:10 106 17.2
2016-Jul-29 10:55 106 17.2
2016-Jul-29 10:40 106 17.8
2016-Jul-29 10:25 106 17.8
2016-Jul-29 10:10 106 0 gusting 2 18.3
2016-Jul-29 09:55 077 0 gusting 2 18.9
2016-Jul-29 09:40 057 20.0
2016-Jul-29 09:25 056 20.6
2016-Jul-29 09:10 056 21.1
2016-Jul-29 08:55 056 0 gusting 2 21.1
2016-Jul-29 08:40 043 21.1
2016-Jul-29 08:25 046 21.1
2016-Jul-29 08:10 062 21.7
2016-Jul-29 07:55 062 22.2
2016-Jul-29 07:40 062 22.2
2016-Jul-29 07:25 062 0 gusting 2 22.8
2016-Jul-29 07:10 034 2 gusting 7 23.3
2016-Jul-29 06:55 047 4 gusting 8 23.9
2016-Jul-29 06:39 025 3 gusting 8 24.4
2016-Jul-29 06:24 073 2 gusting 6 25.0
2016-Jul-29 06:09 046 0 gusting 4 25.0
2016-Jul-29 05:55 104 1 gusting 6 25.6
2016-Jul-29 05:39 046 2 gusting 5 25.6
2016-Jul-29 05:25 084 0 gusting 5 25.6
2016-Jul-29 05:09 058 1 gusting 6 25.6
2016-Jul-29 04:54 129 2 gusting 6 25.6
2016-Jul-29 04:39 129 1 gusting 7 25.0
2016-Jul-29 04:24 103 1 gusting 4 25.0
2016-Jul-29 04:09 092 4 gusting 8 25.0
2016-Jul-29 03:54 093 2 gusting 6 25.0
2016-Jul-29 03:39 099 2 gusting 7 25.0
2016-Jul-29 03:24 085 3 gusting 8 24.4
2016-Jul-29 03:09 107 1 gusting 7 24.4
2016-Jul-29 02:54 165 3 gusting 7 23.9
2016-Jul-29 02:39 179 4 gusting 8 23.9
2016-Jul-29 02:24 144 0 gusting 7 23.3
2016-Jul-29 02:09 129 2 gusting 9 23.3
2016-Jul-29 01:54 159 1 gusting 9 22.8
2016-Jul-29 01:39 149 4 gusting 8 22.8
2016-Jul-29 01:24 130 4 gusting 9 22.8
2016-Jul-29 01:09 131 6 gusting 11 22.2
2016-Jul-29 00:54 133 3 gusting 9 21.7
2016-Jul-29 00:38 158 4 gusting 7 21.1
2016-Jul-29 00:24 165 1 gusting 8 20.6
2016-Jul-29 00:08 138 4 gusting 8 20.0
2016-Jul-28 23:53 158 2 gusting 7 19.4
2016-Jul-28 23:38 170 2 gusting 6 19.4
2016-Jul-28 23:23 146 1 gusting 7 18.9
2016-Jul-28 23:08 175 1 gusting 6 17.8
2016-Jul-28 22:53 131 3 gusting 8 16.7
2016-Jul-28 22:38 165 1 gusting 5 16.1
2016-Jul-28 22:23 239 14.4
2016-Jul-28 22:08 245 13.3
2016-Jul-28 21:53 241 12.2
2016-Jul-28 21:38 241 11.7
2016-Jul-28 21:23 185 10.6
2016-Jul-28 21:08 179 10.0
2016-Jul-28 20:53 175 9.4
2016-Jul-28 20:38 175 10.0
2016-Jul-28 20:23 204 10.0
2016-Jul-28 20:08 202 10.0
2016-Jul-28 19:53 202 10.0
2016-Jul-28 19:38 193 10.0
2016-Jul-28 19:23 170 10.0
2016-Jul-28 19:08 170 10.0
2016-Jul-28 18:53 170 10.0
2016-Jul-28 18:38 170 10.0
2016-Jul-28 18:23 170 10.0
2016-Jul-28 18:08 157 10.0
2016-Jul-28 17:54 157 10.6
2016-Jul-28 17:38 157 11.1
2016-Jul-28 17:22 157 11.1
2016-Jul-28 17:08 157 11.1
2016-Jul-28 16:52 157 11.1
2016-Jul-28 16:37 157 11.7
2016-Jul-28 16:22 157 11.7
2016-Jul-28 16:07 157 12.2
2016-Jul-28 15:52 157 0 gusting 1 12.8
2016-Jul-28 15:37 157 13.3
2016-Jul-28 15:22 157 0 gusting 3 13.3
2016-Jul-28 15:07 165 0 gusting 2 13.3
2016-Jul-28 14:52 170 0 gusting 2 13.9
2016-Jul-28 14:37 165 13.9
2016-Jul-28 14:22 165 14.4
2016-Jul-28 14:07 161 0 gusting 3 14.4
2016-Jul-28 13:52 175 1 gusting 3 13.9
2016-Jul-28 13:37 158 0 gusting 1 13.9
2016-Jul-28 13:22 158 0 gusting 2 14.4
2016-Jul-28 13:07 121 15.0
2016-Jul-28 12:52 126 2 gusting 5 15.0
2016-Jul-28 12:37 129 3 gusting 5 15.6
2016-Jul-28 12:22 138 1 gusting 5 15.6
2016-Jul-28 12:07 140 2 gusting 4 15.0
2016-Jul-28 11:52 128 1 gusting 4 15.0
2016-Jul-28 11:37 134 2 gusting 5 15.6
2016-Jul-28 11:22 128 1 gusting 3 15.0
2016-Jul-28 11:07 119 1 gusting 4 15.6
2016-Jul-28 10:52 115 0 gusting 2 16.1
2016-Jul-28 10:37 107 0 gusting 2 16.7
2016-Jul-28 10:22 114 0 gusting 3 17.2
2016-Jul-28 10:07 081 17.8
2016-Jul-28 09:52 069 0 gusting 2 18.3
2016-Jul-28 09:37 072 0 gusting 2 18.3
2016-Jul-28 09:22 078 17.8
2016-Jul-28 09:07 077 18.3
2016-Jul-28 08:52 077 18.9
2016-Jul-28 08:37 080 18.9
2016-Jul-28 08:22 079 19.4
2016-Jul-28 08:07 064 0 gusting 3 20.0
2016-Jul-28 07:52 073 2 gusting 6 20.6
2016-Jul-28 07:37 081 1 gusting 7 21.1
2016-Jul-28 07:22 058 3 gusting 7 21.7
2016-Jul-28 07:07 053 2 gusting 9 22.2
2016-Jul-28 06:52 062 3 gusting 9 22.8
2016-Jul-28 06:37 042 4 gusting 8 22.8
2016-Jul-28 06:22 088 3 gusting 8 23.3
2016-Jul-28 06:07 074 3 gusting 12 23.3
2016-Jul-28 05:52 056 6 gusting 11 23.9
2016-Jul-28 05:36 042 6 gusting 11 23.9
2016-Jul-28 05:21 085 5 gusting 12 23.9
2016-Jul-28 05:06 066 3 gusting 9 24.4
2016-Jul-28 04:51 052 5 gusting 12 25.0
2016-Jul-28 04:36 051 4 gusting 7 25.0
2016-Jul-28 04:21 112 3 gusting 8 25.6
2016-Jul-28 04:06 109 4 gusting 9 25.0
2016-Jul-28 03:51 129 3 gusting 8 25.0
2016-Jul-28 03:36 141 3 gusting 8 25.0
2016-Jul-28 03:21 130 3 gusting 7 25.0
2016-Jul-28 03:06 179 2 gusting 7 24.4
2016-Jul-28 02:51 153 3 gusting 6 25.0
2016-Jul-28 02:36 092 0 gusting 4 24.4
2016-Jul-28 02:21 081 1 gusting 5 23.9
2016-Jul-28 02:06 120 2 gusting 7 23.9
2016-Jul-28 01:51 139 0 gusting 9 23.3
2016-Jul-28 01:36 170 4 gusting 10 22.8
2016-Jul-28 01:21 230 2 gusting 7 22.8
2016-Jul-28 01:06 156 3 gusting 10 22.8
2016-Jul-28 00:51 148 4 gusting 8 22.2
2016-Jul-28 00:36 090 3 gusting 8 22.2
2016-Jul-28 00:21 137 2 gusting 11 22.2
2016-Jul-28 00:06 125 3 gusting 7 21.7
2016-Jul-27 23:51 175 1 gusting 7 21.7
2016-Jul-27 23:36 146 2 gusting 6 21.1
2016-Jul-27 23:21 165 1 gusting 6 20.6
2016-Jul-27 23:06 206 2 gusting 9 20.0
2016-Jul-27 22:51 170 1 gusting 4 19.4
2016-Jul-27 22:35 148 1 gusting 6 18.3
2016-Jul-27 22:20 165 3 gusting 6 17.8
2016-Jul-27 22:05 170 3 gusting 5 17.2
2016-Jul-27 21:50 179 1 gusting 4 16.7
2016-Jul-27 21:35 204 1 gusting 5 15.6
2016-Jul-27 21:20 147 0 gusting 2 15.0
2016-Jul-27 21:05 124 14.4
2016-Jul-27 20:50 132 14.4
2016-Jul-27 20:35 132 14.4
2016-Jul-27 20:20 132 15.0
2016-Jul-27 20:05 132 15.0
2016-Jul-27 19:50 248 0 gusting 3 15.0
2016-Jul-27 19:35 179 15.6
2016-Jul-27 19:20 175 15.6
2016-Jul-27 19:05 179 16.1